sensor_id;sensor_type;location;lat;lon;timestamp;temperature;humidity
16974;DHT22;8603;46.944;7.412;2023-03-14T00:00:22;7.70;99.90
16974;DHT22;8603;46.944;7.412;2023-03-14T00:02:52;7.70;99.90
16974;DHT22;8603;46.944;7.412;2023-03-14T00:05:18;7.60;99.90
16974;DHT22;8603;46.944;7.412;2023-03-14T00:07:44;7.60;99.90
16974;DHT22;8603;46.944;7.412;2023-03-14T00:10:12;7.60;99.90
16974;DHT22;8603;46.944;7.412;2023-03-14T00:12:39;7.60;99.90
16974;DHT22;8603;46.944;7.412;2023-03-14T00:15:05;7.60;99.90
16974;DHT22;8603;46.944;7.412;2023-03-14T00:17:33;7.50;99.90
16974;DHT22;8603;46.944;7.412;2023-03-14T00:19:59;7.50;99.90
16974;DHT22;8603;46.944;7.412;2023-03-14T00:22:30;7.50;99.90
16974;DHT22;8603;46.944;7.412;2023-03-14T00:24:56;7.50;99.90
16974;DHT22;8603;46.944;7.412;2023-03-14T00:27:22;7.50;99.90
16974;DHT22;8603;46.944;7.412;2023-03-14T00:29:48;7.60;99.90
16974;DHT22;8603;46.944;7.412;2023-03-14T00:32:13;7.50;99.90
16974;DHT22;8603;46.944;7.412;2023-03-14T00:34:39;7.60;99.90
16974;DHT22;8603;46.944;7.412;2023-03-14T00:37:05;7.50;99.90
16974;DHT22;8603;46.944;7.412;2023-03-14T00:39:31;7.50;99.90
16974;DHT22;8603;46.944;7.412;2023-03-14T00:41:56;7.50;99.90
16974;DHT22;8603;46.944;7.412;2023-03-14T00:44:22;7.50;99.90
16974;DHT22;8603;46.944;7.412;2023-03-14T00:46:48;7.50;99.90
16974;DHT22;8603;46.944;7.412;2023-03-14T00:49:13;7.50;99.90
16974;DHT22;8603;46.944;7.412;2023-03-14T00:51:39;7.60;99.90
16974;DHT22;8603;46.944;7.412;2023-03-14T00:54:05;7.60;99.90
16974;DHT22;8603;46.944;7.412;2023-03-14T00:56:31;7.60;99.90
16974;DHT22;8603;46.944;7.412;2023-03-14T00:58:56;7.60;99.90
16974;DHT22;8603;46.944;7.412;2023-03-14T01:01:23;7.60;99.90
16974;DHT22;8603;46.944;7.412;2023-03-14T01:03:51;7.60;99.90
16974;DHT22;8603;46.944;7.412;2023-03-14T01:06:20;7.60;99.90
16974;DHT22;8603;46.944;7.412;2023-03-14T01:08:49;7.60;99.90
16974;DHT22;8603;46.944;7.412;2023-03-14T01:13:48;7.60;99.90
16974;DHT22;8603;46.944;7.412;2023-03-14T01:16:14;7.50;99.90
16974;DHT22;8603;46.944;7.412;2023-03-14T01:18:41;7.60;99.90
16974;DHT22;8603;46.944;7.412;2023-03-14T01:23:41;7.50;99.90
16974;DHT22;8603;46.944;7.412;2023-03-14T01:26:12;7.50;99.90
16974;DHT22;8603;46.944;7.412;2023-03-14T01:28:38;7.50;99.90
16974;DHT22;8603;46.944;7.412;2023-03-14T01:31:06;7.50;99.90
16974;DHT22;8603;46.944;7.412;2023-03-14T01:33:32;7.50;99.90
16974;DHT22;8603;46.944;7.412;2023-03-14T01:35:58;7.50;99.90
16974;DHT22;8603;46.944;7.412;2023-03-14T01:38:24;7.50;99.90
16974;DHT22;8603;46.944;7.412;2023-03-14T01:40:50;7.40;99.90
16974;DHT22;8603;46.944;7.412;2023-03-14T01:43:19;7.40;99.90
16974;DHT22;8603;46.944;7.412;2023-03-14T01:48:57;7.30;99.90
16974;DHT22;8603;46.944;7.412;2023-03-14T01:51:33;7.30;99.90
16974;DHT22;8603;46.944;7.412;2023-03-14T01:56:33;7.30;99.90
16974;DHT22;8603;46.944;7.412;2023-03-14T01:59:00;7.10;99.90
16974;DHT22;8603;46.944;7.412;2023-03-14T02:01:26;7.10;99.90
16974;DHT22;8603;46.944;7.412;2023-03-14T02:03:55;7.00;99.90
16974;DHT22;8603;46.944;7.412;2023-03-14T02:06:29;7.00;99.90
16974;DHT22;8603;46.944;7.412;2023-03-14T02:08:57;7.00;99.90
16974;DHT22;8603;46.944;7.412;2023-03-14T02:11:27;7.00;99.90
16974;DHT22;8603;46.944;7.412;2023-03-14T02:13:54;7.00;99.90
16974;DHT22;8603;46.944;7.412;2023-03-14T02:16:20;7.00;99.90
16974;DHT22;8603;46.944;7.412;2023-03-14T02:18:46;7.00;99.90
16974;DHT22;8603;46.944;7.412;2023-03-14T02:26:40;7.00;99.90
16974;DHT22;8603;46.944;7.412;2023-03-14T02:29:07;7.00;99.90
16974;DHT22;8603;46.944;7.412;2023-03-14T02:31:33;7.00;99.90
16974;DHT22;8603;46.944;7.412;2023-03-14T02:33:59;7.00;99.90
16974;DHT22;8603;46.944;7.412;2023-03-14T02:36:26;7.10;99.90
16974;DHT22;8603;46.944;7.412;2023-03-14T02:41:18;7.10;99.90
16974;DHT22;8603;46.944;7.412;2023-03-14T02:43:44;7.10;99.90
16974;DHT22;8603;46.944;7.412;2023-03-14T02:46:14;7.10;99.90
16974;DHT22;8603;46.944;7.412;2023-03-14T02:48:55;7.10;99.90
16974;DHT22;8603;46.944;7.412;2023-03-14T02:51:23;7.10;99.90
16974;DHT22;8603;46.944;7.412;2023-03-14T02:53:49;7.00;99.90
16974;DHT22;8603;46.944;7.412;2023-03-14T02:56:15;7.00;99.90
16974;DHT22;8603;46.944;7.412;2023-03-14T02:58:40;7.00;99.90
16974;DHT22;8603;46.944;7.412;2023-03-14T03:01:06;6.90;99.90
16974;DHT22;8603;46.944;7.412;2023-03-14T03:03:32;6.90;99.90
16974;DHT22;8603;46.944;7.412;2023-03-14T03:05:57;6.90;99.90
16974;DHT22;8603;46.944;7.412;2023-03-14T03:08:25;6.80;99.90
16974;DHT22;8603;46.944;7.412;2023-03-14T03:10:52;6.80;99.90
16974;DHT22;8603;46.944;7.412;2023-03-14T03:13:17;6.80;99.90
16974;DHT22;8603;46.944;7.412;2023-03-14T03:15:44;6.80;99.90
16974;DHT22;8603;46.944;7.412;2023-03-14T03:18:10;6.80;99.90
16974;DHT22;8603;46.944;7.412;2023-03-14T03:20:35;6.80;99.90
16974;DHT22;8603;46.944;7.412;2023-03-14T03:23:01;6.80;99.90
16974;DHT22;8603;46.944;7.412;2023-03-14T03:25:27;6.70;99.90
16974;DHT22;8603;46.944;7.412;2023-03-14T03:27:53;6.80;99.90
16974;DHT22;8603;46.944;7.412;2023-03-14T03:30:19;6.70;99.90
16974;DHT22;8603;46.944;7.412;2023-03-14T03:32:45;6.70;99.90
16974;DHT22;8603;46.944;7.412;2023-03-14T03:35:10;6.60;99.90
16974;DHT22;8603;46.944;7.412;2023-03-14T03:37:36;6.60;99.90
16974;DHT22;8603;46.944;7.412;2023-03-14T03:40:03;6.50;99.90
16974;DHT22;8603;46.944;7.412;2023-03-14T03:42:32;6.50;99.90
16974;DHT22;8603;46.944;7.412;2023-03-14T03:44:59;6.40;99.90
16974;DHT22;8603;46.944;7.412;2023-03-14T03:47:25;6.50;99.90
16974;DHT22;8603;46.944;7.412;2023-03-14T03:49:51;6.30;99.90
16974;DHT22;8603;46.944;7.412;2023-03-14T03:52:17;6.30;99.90
16974;DHT22;8603;46.944;7.412;2023-03-14T03:54:43;6.30;99.90
16974;DHT22;8603;46.944;7.412;2023-03-14T03:57:08;6.50;99.90
16974;DHT22;8603;46.944;7.412;2023-03-14T03:59:34;6.30;99.90
16974;DHT22;8603;46.944;7.412;2023-03-14T04:01:59;6.30;99.90
16974;DHT22;8603;46.944;7.412;2023-03-14T04:04:25;6.20;99.90
16974;DHT22;8603;46.944;7.412;2023-03-14T04:06:50;6.20;99.90
16974;DHT22;8603;46.944;7.412;2023-03-14T04:09:16;6.10;99.90
16974;DHT22;8603;46.944;7.412;2023-03-14T04:11:41;6.10;99.90
16974;DHT22;8603;46.944;7.412;2023-03-14T04:14:07;6.10;99.90
16974;DHT22;8603;46.944;7.412;2023-03-14T04:16:33;6.10;99.90
16974;DHT22;8603;46.944;7.412;2023-03-14T04:18:59;6.00;99.90
16974;DHT22;8603;46.944;7.412;2023-03-14T04:21:25;6.10;99.90
16974;DHT22;8603;46.944;7.412;2023-03-14T04:23:50;6.10;99.90
16974;DHT22;8603;46.944;7.412;2023-03-14T04:26:16;6.10;99.90
16974;DHT22;8603;46.944;7.412;2023-03-14T04:28:42;6.10;99.90
16974;DHT22;8603;46.944;7.412;2023-03-14T04:31:13;6.00;99.90
16974;DHT22;8603;46.944;7.412;2023-03-14T04:33:39;5.90;99.90
16974;DHT22;8603;46.944;7.412;2023-03-14T04:36:05;5.90;99.90
16974;DHT22;8603;46.944;7.412;2023-03-14T04:38:32;5.80;99.90
16974;DHT22;8603;46.944;7.412;2023-03-14T04:40:57;5.80;99.90
16974;DHT22;8603;46.944;7.412;2023-03-14T04:43:23;5.80;99.90
16974;DHT22;8603;46.944;7.412;2023-03-14T04:45:49;5.70;99.90
16974;DHT22;8603;46.944;7.412;2023-03-14T04:48:14;5.70;99.90
16974;DHT22;8603;46.944;7.412;2023-03-14T04:50:40;5.60;99.90
16974;DHT22;8603;46.944;7.412;2023-03-14T04:53:05;5.50;99.90
16974;DHT22;8603;46.944;7.412;2023-03-14T04:55:31;5.50;99.90
16974;DHT22;8603;46.944;7.412;2023-03-14T04:58:00;5.40;99.90
16974;DHT22;8603;46.944;7.412;2023-03-14T05:00:26;5.30;99.90
16974;DHT22;8603;46.944;7.412;2023-03-14T05:02:51;5.30;99.90
16974;DHT22;8603;46.944;7.412;2023-03-14T05:05:17;5.20;99.90
16974;DHT22;8603;46.944;7.412;2023-03-14T05:07:42;5.30;99.90
16974;DHT22;8603;46.944;7.412;2023-03-14T05:10:09;5.30;99.90
16974;DHT22;8603;46.944;7.412;2023-03-14T05:12:35;5.30;99.90
16974;DHT22;8603;46.944;7.412;2023-03-14T05:15:00;5.30;99.90
16974;DHT22;8603;46.944;7.412;2023-03-14T05:17:26;5.20;99.90
16974;DHT22;8603;46.944;7.412;2023-03-14T05:19:51;5.10;99.90
16974;DHT22;8603;46.944;7.412;2023-03-14T05:22:17;5.00;99.90
16974;DHT22;8603;46.944;7.412;2023-03-14T05:24:43;5.00;99.90
16974;DHT22;8603;46.944;7.412;2023-03-14T05:27:08;4.90;99.90
16974;DHT22;8603;46.944;7.412;2023-03-14T05:29:34;4.80;99.90
16974;DHT22;8603;46.944;7.412;2023-03-14T05:32:00;4.80;99.90
16974;DHT22;8603;46.944;7.412;2023-03-14T05:34:25;4.70;99.90
16974;DHT22;8603;46.944;7.412;2023-03-14T05:36:51;4.60;99.90
16974;DHT22;8603;46.944;7.412;2023-03-14T05:39:17;4.50;99.90
16974;DHT22;8603;46.944;7.412;2023-03-14T05:41:43;4.40;99.90
16974;DHT22;8603;46.944;7.412;2023-03-14T05:44:08;4.30;99.90
16974;DHT22;8603;46.944;7.412;2023-03-14T05:46:34;4.30;99.90
16974;DHT22;8603;46.944;7.412;2023-03-14T05:49:00;4.20;99.90
16974;DHT22;8603;46.944;7.412;2023-03-14T05:51:25;4.20;99.90
16974;DHT22;8603;46.944;7.412;2023-03-14T05:53:51;4.20;99.90
16974;DHT22;8603;46.944;7.412;2023-03-14T05:56:17;4.20;99.90
16974;DHT22;8603;46.944;7.412;2023-03-14T05:58:42;4.20;99.90
16974;DHT22;8603;46.944;7.412;2023-03-14T06:01:08;4.20;99.90
16974;DHT22;8603;46.944;7.412;2023-03-14T06:03:34;4.30;99.90
16974;DHT22;8603;46.944;7.412;2023-03-14T06:06:00;4.50;99.90
16974;DHT22;8603;46.944;7.412;2023-03-14T06:08:26;4.60;99.90
16974;DHT22;8603;46.944;7.412;2023-03-14T06:10:52;4.70;99.90
16974;DHT22;8603;46.944;7.412;2023-03-14T06:13:18;4.90;99.90
16974;DHT22;8603;46.944;7.412;2023-03-14T06:15:44;5.10;99.90
16974;DHT22;8603;46.944;7.412;2023-03-14T06:18:10;5.30;99.90
16974;DHT22;8603;46.944;7.412;2023-03-14T06:20:36;5.50;99.90
16974;DHT22;8603;46.944;7.412;2023-03-14T06:23:05;5.70;99.90
16974;DHT22;8603;46.944;7.412;2023-03-14T06:25:31;6.20;99.90
16974;DHT22;8603;46.944;7.412;2023-03-14T06:27:57;7.10;99.90
16974;DHT22;8603;46.944;7.412;2023-03-14T06:30:23;8.20;99.90
16974;DHT22;8603;46.944;7.412;2023-03-14T06:32:48;9.50;99.90
16974;DHT22;8603;46.944;7.412;2023-03-14T06:35:14;11.10;99.90
16974;DHT22;8603;46.944;7.412;2023-03-14T06:37:40;12.90;99.90
16974;DHT22;8603;46.944;7.412;2023-03-14T06:40:07;14.50;99.90
16974;DHT22;8603;46.944;7.412;2023-03-14T06:42:33;15.30;99.90
16974;DHT22;8603;46.944;7.412;2023-03-14T06:44:58;15.00;99.90
16974;DHT22;8603;46.944;7.412;2023-03-14T06:47:24;14.30;99.90
16974;DHT22;8603;46.944;7.412;2023-03-14T06:49:50;13.50;99.90
16974;DHT22;8603;46.944;7.412;2023-03-14T06:52:15;12.70;99.90
16974;DHT22;8603;46.944;7.412;2023-03-14T06:54:41;12.00;99.90
16974;DHT22;8603;46.944;7.412;2023-03-14T06:57:07;11.40;99.90
16974;DHT22;8603;46.944;7.412;2023-03-14T06:59:32;11.10;99.90
16974;DHT22;8603;46.944;7.412;2023-03-14T07:01:58;10.80;99.90
16974;DHT22;8603;46.944;7.412;2023-03-14T07:04:24;10.50;99.90
16974;DHT22;8603;46.944;7.412;2023-03-14T07:06:50;10.40;99.90
16974;DHT22;8603;46.944;7.412;2023-03-14T07:09:16;10.30;99.90
16974;DHT22;8603;46.944;7.412;2023-03-14T07:11:44;10.40;99.90
16974;DHT22;8603;46.944;7.412;2023-03-14T07:14:10;10.50;99.90
16974;DHT22;8603;46.944;7.412;2023-03-14T07:16:35;10.50;99.90
16974;DHT22;8603;46.944;7.412;2023-03-14T07:19:02;10.50;99.90
16974;DHT22;8603;46.944;7.412;2023-03-14T07:21:28;10.30;99.90
16974;DHT22;8603;46.944;7.412;2023-03-14T07:23:54;10.20;99.90
16974;DHT22;8603;46.944;7.412;2023-03-14T07:26:20;10.20;99.90
16974;DHT22;8603;46.944;7.412;2023-03-14T07:28:46;10.10;99.90
16974;DHT22;8603;46.944;7.412;2023-03-14T07:31:11;10.10;99.90
16974;DHT22;8603;46.944;7.412;2023-03-14T07:33:37;10.00;99.90
16974;DHT22;8603;46.944;7.412;2023-03-14T07:36:04;9.90;99.90
16974;DHT22;8603;46.944;7.412;2023-03-14T07:38:30;9.90;99.90
16974;DHT22;8603;46.944;7.412;2023-03-14T07:41:03;9.90;99.90
16974;DHT22;8603;46.944;7.412;2023-03-14T07:43:29;9.90;99.90
16974;DHT22;8603;46.944;7.412;2023-03-14T07:45:55;10.00;99.90
16974;DHT22;8603;46.944;7.412;2023-03-14T07:48:21;10.10;99.90
16974;DHT22;8603;46.944;7.412;2023-03-14T07:50:51;10.30;99.90
16974;DHT22;8603;46.944;7.412;2023-03-14T07:53:17;10.50;99.90
16974;DHT22;8603;46.944;7.412;2023-03-14T07:55:43;10.60;99.90
16974;DHT22;8603;46.944;7.412;2023-03-14T07:58:09;10.80;99.90
16974;DHT22;8603;46.944;7.412;2023-03-14T08:00:34;10.90;99.90
16974;DHT22;8603;46.944;7.412;2023-03-14T08:03:00;11.20;99.90
16974;DHT22;8603;46.944;7.412;2023-03-14T08:05:25;11.30;99.90
16974;DHT22;8603;46.944;7.412;2023-03-14T08:07:51;11.20;99.90
16974;DHT22;8603;46.944;7.412;2023-03-14T08:10:17;11.10;99.90
16974;DHT22;8603;46.944;7.412;2023-03-14T08:12:54;11.10;99.90
16974;DHT22;8603;46.944;7.412;2023-03-14T08:15:20;11.20;99.90
16974;DHT22;8603;46.944;7.412;2023-03-14T08:17:46;11.20;99.90
16974;DHT22;8603;46.944;7.412;2023-03-14T08:20:26;11.20;99.90
16974;DHT22;8603;46.944;7.412;2023-03-14T08:22:51;11.20;99.90
16974;DHT22;8603;46.944;7.412;2023-03-14T08:25:17;11.20;99.90
16974;DHT22;8603;46.944;7.412;2023-03-14T08:27:43;11.20;99.90
16974;DHT22;8603;46.944;7.412;2023-03-14T08:30:11;11.30;99.90
16974;DHT22;8603;46.944;7.412;2023-03-14T08:32:37;11.30;99.90
16974;DHT22;8603;46.944;7.412;2023-03-14T08:35:04;11.30;99.90
16974;DHT22;8603;46.944;7.412;2023-03-14T08:37:32;11.10;99.90
16974;DHT22;8603;46.944;7.412;2023-03-14T08:39:58;10.90;99.90
16974;DHT22;8603;46.944;7.412;2023-03-14T08:42:23;10.80;99.90
16974;DHT22;8603;46.944;7.412;2023-03-14T08:44:51;10.80;99.90
16974;DHT22;8603;46.944;7.412;2023-03-14T08:47:16;10.80;99.90
16974;DHT22;8603;46.944;7.412;2023-03-14T08:49:42;11.00;99.90
16974;DHT22;8603;46.944;7.412;2023-03-14T08:52:08;11.40;99.90
16974;DHT22;8603;46.944;7.412;2023-03-14T08:54:34;12.00;99.90
16974;DHT22;8603;46.944;7.412;2023-03-14T08:56:59;12.30;99.90
16974;DHT22;8603;46.944;7.412;2023-03-14T08:59:25;12.50;99.90
16974;DHT22;8603;46.944;7.412;2023-03-14T09:01:51;12.40;99.90
16974;DHT22;8603;46.944;7.412;2023-03-14T09:04:17;12.40;99.90
16974;DHT22;8603;46.944;7.412;2023-03-14T09:06:42;12.20;99.90
16974;DHT22;8603;46.944;7.412;2023-03-14T09:09:08;12.10;99.90
16974;DHT22;8603;46.944;7.412;2023-03-14T09:11:34;12.10;99.90
16974;DHT22;8603;46.944;7.412;2023-03-14T09:13:59;12.00;99.90
16974;DHT22;8603;46.944;7.412;2023-03-14T09:16:25;12.00;99.90
16974;DHT22;8603;46.944;7.412;2023-03-14T09:18:51;11.80;99.90
16974;DHT22;8603;46.944;7.412;2023-03-14T09:21:20;11.80;99.90
16974;DHT22;8603;46.944;7.412;2023-03-14T09:23:46;12.00;99.90
16974;DHT22;8603;46.944;7.412;2023-03-14T09:26:11;12.10;99.90
16974;DHT22;8603;46.944;7.412;2023-03-14T09:28:37;12.10;99.90
16974;DHT22;8603;46.944;7.412;2023-03-14T09:31:09;12.00;99.90
16974;DHT22;8603;46.944;7.412;2023-03-14T09:33:36;11.70;99.90
16974;DHT22;8603;46.944;7.412;2023-03-14T09:36:02;11.40;99.90
16974;DHT22;8603;46.944;7.412;2023-03-14T09:38:28;11.30;99.90
16974;DHT22;8603;46.944;7.412;2023-03-14T09:40:55;11.30;99.90
16974;DHT22;8603;46.944;7.412;2023-03-14T09:43:24;11.40;99.90
16974;DHT22;8603;46.944;7.412;2023-03-14T09:45:51;11.40;99.90
16974;DHT22;8603;46.944;7.412;2023-03-14T09:48:22;11.50;99.90
16974;DHT22;8603;46.944;7.412;2023-03-14T09:50:51;11.50;99.90
16974;DHT22;8603;46.944;7.412;2023-03-14T09:53:24;11.40;99.90
16974;DHT22;8603;46.944;7.412;2023-03-14T09:55:51;11.20;99.90
16974;DHT22;8603;46.944;7.412;2023-03-14T09:58:21;10.90;99.90
16974;DHT22;8603;46.944;7.412;2023-03-14T10:00:48;10.80;99.90
16974;DHT22;8603;46.944;7.412;2023-03-14T10:05:48;10.00;99.90
16974;DHT22;8603;46.944;7.412;2023-03-14T10:08:14;9.70;99.90
16974;DHT22;8603;46.944;7.412;2023-03-14T10:10:41;9.50;99.90
16974;DHT22;8603;46.944;7.412;2023-03-14T10:13:16;9.10;99.90
16974;DHT22;8603;46.944;7.412;2023-03-14T10:15:42;8.90;99.90
16974;DHT22;8603;46.944;7.412;2023-03-14T10:18:12;8.70;99.90
16974;DHT22;8603;46.944;7.412;2023-03-14T10:23:40;8.40;99.90
16974;DHT22;8603;46.944;7.412;2023-03-14T10:26:17;8.30;99.90
16974;DHT22;8603;46.944;7.412;2023-03-14T10:31:10;8.10;99.90
16974;DHT22;8603;46.944;7.412;2023-03-14T10:33:37;8.10;99.90
16974;DHT22;8603;46.944;7.412;2023-03-14T10:36:06;8.00;99.90
16974;DHT22;8603;46.944;7.412;2023-03-14T10:38:41;8.00;99.90
16974;DHT22;8603;46.944;7.412;2023-03-14T10:41:36;8.00;99.90
16974;DHT22;8603;46.944;7.412;2023-03-14T10:44:02;8.00;99.90
16974;DHT22;8603;46.944;7.412;2023-03-14T10:46:30;8.10;99.90
16974;DHT22;8603;46.944;7.412;2023-03-14T10:48:57;8.10;99.90
16974;DHT22;8603;46.944;7.412;2023-03-14T10:51:28;8.20;99.90
16974;DHT22;8603;46.944;7.412;2023-03-14T10:54:04;8.30;99.90
16974;DHT22;8603;46.944;7.412;2023-03-14T10:56:37;8.30;99.90
16974;DHT22;8603;46.944;7.412;2023-03-14T10:59:07;8.50;99.90
16974;DHT22;8603;46.944;7.412;2023-03-14T11:07:33;8.70;99.90
16974;DHT22;8603;46.944;7.412;2023-03-14T11:10:14;8.70;99.90
16974;DHT22;8603;46.944;7.412;2023-03-14T11:15:34;8.70;99.90
16974;DHT22;8603;46.944;7.412;2023-03-14T11:24:20;8.40;99.90
16974;DHT22;8603;46.944;7.412;2023-03-14T11:26:35;8.20;99.90
16974;DHT22;8603;46.944;7.412;2023-03-14T11:31:40;7.60;99.90
16974;DHT22;8603;46.944;7.412;2023-03-14T11:36:53;7.30;99.90
16974;DHT22;8603;46.944;7.412;2023-03-14T11:39:26;7.20;99.90
16974;DHT22;8603;46.944;7.412;2023-03-14T11:41:57;7.20;99.90
16974;DHT22;8603;46.944;7.412;2023-03-14T11:44:34;7.30;99.90
16974;DHT22;8603;46.944;7.412;2023-03-14T11:47:10;7.40;99.90
16974;DHT22;8603;46.944;7.412;2023-03-14T11:50:29;7.50;99.90
16974;DHT22;8603;46.944;7.412;2023-03-14T11:52:34;7.60;99.90
16974;DHT22;8603;46.944;7.412;2023-03-14T11:55:21;7.80;99.90
16974;DHT22;8603;46.944;7.412;2023-03-14T11:57:51;8.00;99.90
16974;DHT22;8603;46.944;7.412;2023-03-14T12:00:21;8.20;99.90
16974;DHT22;8603;46.944;7.412;2023-03-14T12:05:43;8.50;99.90
16974;DHT22;8603;46.944;7.412;2023-03-14T12:10:55;8.60;99.90
16974;DHT22;8603;46.944;7.412;2023-03-14T12:13:28;8.60;99.90
16974;DHT22;8603;46.944;7.412;2023-03-14T12:15:58;8.60;99.90
16974;DHT22;8603;46.944;7.412;2023-03-14T12:18:38;8.50;99.90
16974;DHT22;8603;46.944;7.412;2023-03-14T12:21:06;8.40;99.90
16974;DHT22;8603;46.944;7.412;2023-03-14T12:23:51;8.30;99.90
16974;DHT22;8603;46.944;7.412;2023-03-14T12:26:19;8.10;99.90
16974;DHT22;8603;46.944;7.412;2023-03-14T12:39:38;8.00;99.90
16974;DHT22;8603;46.944;7.412;2023-03-14T12:44:44;7.90;99.90
16974;DHT22;8603;46.944;7.412;2023-03-14T12:50:07;7.90;99.90
16974;DHT22;8603;46.944;7.412;2023-03-14T12:52:54;7.80;99.90
16974;DHT22;8603;46.944;7.412;2023-03-14T12:55:45;7.90;99.90
16974;DHT22;8603;46.944;7.412;2023-03-14T12:58:47;8.00;99.90
16974;DHT22;8603;46.944;7.412;2023-03-14T13:01:20;8.20;99.90
16974;DHT22;8603;46.944;7.412;2023-03-14T13:04:09;8.50;99.90
16974;DHT22;8603;46.944;7.412;2023-03-14T13:06:54;8.90;99.90
16974;DHT22;8603;46.944;7.412;2023-03-14T13:12:11;9.50;99.90
16974;DHT22;8603;46.944;7.412;2023-03-14T13:14:41;9.80;99.90
16974;DHT22;8603;46.944;7.412;2023-03-14T13:17:13;10.10;99.90
16974;DHT22;8603;46.944;7.412;2023-03-14T13:19:39;10.50;99.90
16974;DHT22;8603;46.944;7.412;2023-03-14T13:22:21;10.80;99.90
16974;DHT22;8603;46.944;7.412;2023-03-14T13:24:47;11.00;99.90
16974;DHT22;8603;46.944;7.412;2023-03-14T13:27:20;11.10;99.90
16974;DHT22;8603;46.944;7.412;2023-03-14T13:29:49;11.00;99.90
16974;DHT22;8603;46.944;7.412;2023-03-14T13:32:39;10.90;99.90
16974;DHT22;8603;46.944;7.412;2023-03-14T13:35:19;10.60;99.90
16974;DHT22;8603;46.944;7.412;2023-03-14T13:37:46;10.20;99.90
16974;DHT22;8603;46.944;7.412;2023-03-14T13:40:29;10.10;99.90
16974;DHT22;8603;46.944;7.412;2023-03-14T13:43:03;10.00;99.90
16974;DHT22;8603;46.944;7.412;2023-03-14T13:45:29;10.00;99.90
16974;DHT22;8603;46.944;7.412;2023-03-14T13:47:55;10.10;99.90
16974;DHT22;8603;46.944;7.412;2023-03-14T13:50:21;10.20;99.90
16974;DHT22;8603;46.944;7.412;2023-03-14T13:52:46;10.30;99.90
16974;DHT22;8603;46.944;7.412;2023-03-14T13:55:17;10.40;99.90
16974;DHT22;8603;46.944;7.412;2023-03-14T13:57:52;10.50;99.90
16974;DHT22;8603;46.944;7.412;2023-03-14T14:00:22;10.50;99.90
16974;DHT22;8603;46.944;7.412;2023-03-14T14:02:56;10.70;99.90
16974;DHT22;8603;46.944;7.412;2023-03-14T14:05:22;10.60;99.90
16974;DHT22;8603;46.944;7.412;2023-03-14T14:07:49;10.50;99.90
16974;DHT22;8603;46.944;7.412;2023-03-14T14:10:16;10.20;99.90
16974;DHT22;8603;46.944;7.412;2023-03-14T14:12:57;10.10;99.90
16974;DHT22;8603;46.944;7.412;2023-03-14T14:15:30;9.70;99.90
16974;DHT22;8603;46.944;7.412;2023-03-14T14:18:03;9.60;99.90
16974;DHT22;8603;46.944;7.412;2023-03-14T14:20:39;9.70;99.90
16974;DHT22;8603;46.944;7.412;2023-03-14T14:23:10;9.70;99.90
16974;DHT22;8603;46.944;7.412;2023-03-14T14:25:36;9.90;99.90
16974;DHT22;8603;46.944;7.412;2023-03-14T14:28:23;10.00;99.90
16974;DHT22;8603;46.944;7.412;2023-03-14T14:31:03;10.20;99.90
16974;DHT22;8603;46.944;7.412;2023-03-14T14:33:38;10.40;99.90
16974;DHT22;8603;46.944;7.412;2023-03-14T14:36:04;10.40;99.90
16974;DHT22;8603;46.944;7.412;2023-03-14T14:38:30;10.30;99.90
16974;DHT22;8603;46.944;7.412;2023-03-14T14:41:00;10.20;99.90
16974;DHT22;8603;46.944;7.412;2023-03-14T14:43:28;10.30;99.90
16974;DHT22;8603;46.944;7.412;2023-03-14T14:45:56;10.30;99.90
16974;DHT22;8603;46.944;7.412;2023-03-14T14:48:25;10.40;99.90
16974;DHT22;8603;46.944;7.412;2023-03-14T14:50:58;10.30;99.90
16974;DHT22;8603;46.944;7.412;2023-03-14T14:53:42;10.20;99.90
16974;DHT22;8603;46.944;7.412;2023-03-14T14:56:19;9.90;99.90
16974;DHT22;8603;46.944;7.412;2023-03-14T14:58:48;9.80;99.90
16974;DHT22;8603;46.944;7.412;2023-03-14T15:01:20;9.60;99.90
16974;DHT22;8603;46.944;7.412;2023-03-14T15:03:50;9.50;99.90
16974;DHT22;8603;46.944;7.412;2023-03-14T15:06:17;9.30;99.90
16974;DHT22;8603;46.944;7.412;2023-03-14T15:08:45;9.10;99.90
16974;DHT22;8603;46.944;7.412;2023-03-14T15:11:25;8.90;99.90
16974;DHT22;8603;46.944;7.412;2023-03-14T15:13:52;8.90;99.90
16974;DHT22;8603;46.944;7.412;2023-03-14T15:16:25;8.70;99.90
16974;DHT22;8603;46.944;7.412;2023-03-14T15:18:57;8.60;99.90
16974;DHT22;8603;46.944;7.412;2023-03-14T15:21:24;8.50;99.90
16974;DHT22;8603;46.944;7.412;2023-03-14T15:23:50;8.60;99.90
16974;DHT22;8603;46.944;7.412;2023-03-14T15:26:21;8.60;99.90
16974;DHT22;8603;46.944;7.412;2023-03-14T15:28:47;8.50;99.90
16974;DHT22;8603;46.944;7.412;2023-03-14T15:31:14;8.50;99.90
16974;DHT22;8603;46.944;7.412;2023-03-14T15:33:40;8.50;99.90
16974;DHT22;8603;46.944;7.412;2023-03-14T15:36:28;8.50;99.90
16974;DHT22;8603;46.944;7.412;2023-03-14T15:38:54;8.50;99.90
16974;DHT22;8603;46.944;7.412;2023-03-14T15:41:21;8.50;99.90
16974;DHT22;8603;46.944;7.412;2023-03-14T15:43:47;8.50;99.90
16974;DHT22;8603;46.944;7.412;2023-03-14T15:46:13;8.50;99.90
16974;DHT22;8603;46.944;7.412;2023-03-14T15:48:40;8.40;99.90
16974;DHT22;8603;46.944;7.412;2023-03-14T15:51:06;8.20;99.90
16974;DHT22;8603;46.944;7.412;2023-03-14T15:53:32;8.00;99.90
16974;DHT22;8603;46.944;7.412;2023-03-14T15:55:57;7.90;99.90
16974;DHT22;8603;46.944;7.412;2023-03-14T15:58:23;7.70;99.90
16974;DHT22;8603;46.944;7.412;2023-03-14T16:00:49;7.40;99.90
16974;DHT22;8603;46.944;7.412;2023-03-14T16:03:15;7.10;99.90
16974;DHT22;8603;46.944;7.412;2023-03-14T16:05:41;6.90;99.90
16974;DHT22;8603;46.944;7.412;2023-03-14T16:08:06;6.70;99.90
16974;DHT22;8603;46.944;7.412;2023-03-14T16:10:32;6.60;99.90
16974;DHT22;8603;46.944;7.412;2023-03-14T16:12:58;6.50;99.90
16974;DHT22;8603;46.944;7.412;2023-03-14T16:15:24;6.40;99.90
16974;DHT22;8603;46.944;7.412;2023-03-14T16:17:54;6.40;99.90
16974;DHT22;8603;46.944;7.412;2023-03-14T16:20:20;6.30;99.90
16974;DHT22;8603;46.944;7.412;2023-03-14T16:22:46;6.40;99.90
16974;DHT22;8603;46.944;7.412;2023-03-14T16:25:15;6.60;99.90
16974;DHT22;8603;46.944;7.412;2023-03-14T16:27:43;6.70;99.90
16974;DHT22;8603;46.944;7.412;2023-03-14T16:30:09;6.70;99.90
16974;DHT22;8603;46.944;7.412;2023-03-14T16:32:35;6.80;99.90
16974;DHT22;8603;46.944;7.412;2023-03-14T16:35:01;6.80;99.90
16974;DHT22;8603;46.944;7.412;2023-03-14T16:37:26;6.70;99.90
16974;DHT22;8603;46.944;7.412;2023-03-14T16:39:53;6.80;99.90
16974;DHT22;8603;46.944;7.412;2023-03-14T16:42:20;6.70;99.90
16974;DHT22;8603;46.944;7.412;2023-03-14T16:44:46;6.70;99.90
16974;DHT22;8603;46.944;7.412;2023-03-14T16:47:11;6.60;99.90
16974;DHT22;8603;46.944;7.412;2023-03-14T16:49:37;6.60;99.90
16974;DHT22;8603;46.944;7.412;2023-03-14T16:52:03;6.60;99.90
16974;DHT22;8603;46.944;7.412;2023-03-14T16:54:29;6.60;99.90
16974;DHT22;8603;46.944;7.412;2023-03-14T16:56:55;6.60;99.90
16974;DHT22;8603;46.944;7.412;2023-03-14T16:59:20;6.60;99.90
16974;DHT22;8603;46.944;7.412;2023-03-14T17:01:46;6.60;99.90
16974;DHT22;8603;46.944;7.412;2023-03-14T17:04:11;6.60;99.90
16974;DHT22;8603;46.944;7.412;2023-03-14T17:06:37;6.50;99.90
16974;DHT22;8603;46.944;7.412;2023-03-14T17:09:04;6.50;99.90
16974;DHT22;8603;46.944;7.412;2023-03-14T17:11:31;6.40;99.90
16974;DHT22;8603;46.944;7.412;2023-03-14T17:14:00;6.40;99.90